Time;durP1;ratioP1;P1;durP2;ratioP2;P2;SDS_P1;SDS_P2;PMS_P1;PMS_P2;Temp;Humidity;BMP_temperature;BMP_pressure;BME280_temperature;BME280_humidity;BME280_pressure;Samples;Min_cycle;Max_cycle;Signal;HPM_P1;HPM_P2
2021/07/07 00:00:14;;;;;;;11.35;6.13;;;16.20;70.80;;;;;;5037414;28;20033;-72
2021/07/07 00:02:41;;;;;;;11.43;5.93;;;16.20;71.80;;;;;;5037239;28;20025;-72
2021/07/07 00:05:09;;;;;;;17.85;6.18;;;16.20;72.60;;;;;;5037204;28;20040;-72
2021/07/07 00:07:35;;;;;;;13.30;5.82;;;16.20;72.00;;;;;;5035815;28;20010;-72
2021/07/07 00:10:03;;;;;;;15.13;5.60;;;16.10;72.50;;;;;;5035331;28;20076;-72
2021/07/07 00:12:29;;;;;;;12.43;5.85;;;16.00;72.20;;;;;;5036848;28;20021;-72
2021/07/07 00:14:55;;;;;;;15.00;5.22;;;16.00;71.90;;;;;;5037048;28;20029;-72
2021/07/07 00:17:21;;;;;;;15.52;6.22;;;15.90;72.90;;;;;;5031908;28;20029;-72
2021/07/07 00:19:47;;;;;;;12.48;6.03;;;15.90;72.70;;;;;;5033453;28;20045;-72
2021/07/07 00:22:14;;;;;;;11.63;5.47;;;15.90;72.50;;;;;;5034098;28;20034;-71
2021/07/07 00:24:40;;;;;;;13.38;5.97;;;15.90;73.60;;;;;;5037475;28;20018;-71
2021/07/07 00:27:08;;;;;;;10.15;5.25;;;15.80;72.90;;;;;;5036666;28;20108;-71
2021/07/07 00:29:34;;;;;;;12.25;5.60;;;15.70;72.70;;;;;;5037249;28;20026;-71
2021/07/07 00:32:00;;;;;;;11.85;5.53;;;15.70;73.30;;;;;;5037036;28;20025;-71
2021/07/07 00:34:26;;;;;;;12.75;5.93;;;15.60;72.90;;;;;;5032207;28;20155;-71
2021/07/07 00:36:52;;;;;;;13.95;5.78;;;15.60;73.00;;;;;;5033285;28;20033;-71
2021/07/07 00:39:17;;;;;;;19.88;6.40;;;15.60;74.30;;;;;;5037319;28;20362;-71
2021/07/07 00:41:43;;;;;;;11.25;5.28;;;15.60;74.20;;;;;;5036574;28;20026;-71
2021/07/07 00:44:09;;;;;;;12.45;5.70;;;15.60;73.90;;;;;;5037357;28;20399;-71
2021/07/07 00:46:37;;;;;;;12.32;5.95;;;15.50;73.80;;;;;;5036852;28;20022;-71
2021/07/07 00:49:04;;;;;;;12.57;5.70;;;15.50;74.70;;;;;;5037037;28;20017;-71
2021/07/07 00:51:31;;;;;;;13.95;6.50;;;15.40;73.60;;;;;;5036819;28;20074;-71
2021/07/07 00:54:00;;;;;;;11.57;5.68;;;15.30;73.70;;;;;;5036969;28;20033;-71
2021/07/07 00:56:28;;;;;;;11.15;5.10;;;15.30;73.80;;;;;;5039097;28;20488;-72
2021/07/07 00:58:56;;;;;;;13.25;6.40;;;15.30;73.80;;;;;;5040631;28;20093;-71
2021/07/07 01:01:23;;;;;;;18.13;6.55;;;15.20;74.40;;;;;;5040566;28;20022;-71
2021/07/07 01:03:49;;;;;;;12.95;5.35;;;15.20;73.60;;;;;;5040595;28;20498;-70
2021/07/07 01:06:14;;;;;;;13.63;5.57;;;15.20;73.10;;;;;;5027859;28;20021;-70
2021/07/07 01:08:40;;;;;;;13.18;5.45;;;15.10;72.80;;;;;;5040244;28;20087;-71
2021/07/07 01:11:06;;;;;;;9.60;5.05;;;15.10;72.60;;;;;;5040163;28;20026;-71
2021/07/07 01:13:32;;;;;;;11.38;5.18;;;15.10;73.60;;;;;;5040286;28;20022;-71
2021/07/07 01:15:59;;;;;;;14.88;5.53;;;15.00;73.20;;;;;;5040537;28;20029;-71
2021/07/07 01:18:25;;;;;;;12.20;5.18;;;15.00;73.10;;;;;;5031314;28;20151;-71
2021/07/07 01:20:51;;;;;;;12.00;5.13;;;15.00;73.00;;;;;;5040072;28;20053;-71
2021/07/07 01:23:17;;;;;;;12.75;5.28;;;15.00;72.70;;;;;;5038922;28;20036;-71
2021/07/07 01:25:44;;;;;;;13.75;5.47;;;14.90;72.90;;;;;;5039683;28;20484;-71
2021/07/07 01:28:10;;;;;;;9.38;5.30;;;14.90;73.20;;;;;;5040343;28;20021;-71
2021/07/07 01:30:35;;;;;;;11.18;5.57;;;14.90;73.20;;;;;;5039961;28;20546;-71
2021/07/07 01:33:01;;;;;;;13.00;4.72;;;14.80;72.90;;;;;;5036244;28;20030;-71
2021/07/07 01:35:27;;;;;;;11.95;5.03;;;14.80;72.90;;;;;;5038434;28;20056;-71
2021/07/07 01:37:55;;;;;;;10.35;5.15;;;14.80;73.00;;;;;;5036214;28;20737;-71
2021/07/07 01:40:26;;;;;;;13.73;5.07;;;14.80;72.20;;;;;;5039654;28;20032;-71
2021/07/07 01:42:53;;;;;;;11.13;5.07;;;14.70;71.90;;;;;;5039943;28;20010;-71
2021/07/07 01:45:21;;;;;;;11.70;4.85;;;14.70;71.90;;;;;;5026680;28;20033;-71
2021/07/07 01:47:48;;;;;;;11.95;5.45;;;14.70;72.40;;;;;;5039637;28;20021;-71
2021/07/07 01:50:14;;;;;;;8.98;4.13;;;14.60;72.20;;;;;;5039747;28;20484;-71
2021/07/07 01:52:41;;;;;;;13.63;4.90;;;14.60;72.40;;;;;;5039484;28;20048;-71
2021/07/07 01:55:09;;;;;;;12.00;4.75;;;14.60;72.30;;;;;;5039636;28;20035;-71
2021/07/07 01:57:45;;;;;;;10.98;5.13;;;14.60;72.00;;;;;;5039205;28;20097;-71
2021/07/07 02:00:17;;;;;;;15.80;4.95;;;14.50;72.40;;;;;;5039655;28;20388;-71
2021/07/07 02:02:44;;;;;;;9.05;5.88;;;14.50;72.10;;;;;;5039389;28;20029;-71
2021/07/07 02:05:11;;;;;;;13.40;5.85;;;14.50;72.90;;;;;;5039459;28;20539;-71
2021/07/07 02:07:37;;;;;;;12.27;5.90;;;14.50;72.90;;;;;;5039094;28;20022;-71
2021/07/07 02:10:10;;;;;;;16.85;5.70;;;14.40;72.70;;;;;;5039216;28;20101;-71
2021/07/07 02:12:36;;;;;;;14.20;5.18;;;14.40;72.90;;;;;;5038960;28;20052;-71
2021/07/07 02:15:09;;;;;;;9.13;4.38;;;14.40;73.10;;;;;;5039136;28;20102;-74
2021/07/07 02:17:35;;;;;;;14.75;5.57;;;14.40;73.20;;;;;;5034664;28;20014;-71
2021/07/07 02:20:01;;;;;;;12.55;5.50;;;14.40;73.10;;;;;;5034745;28;20099;-71
2021/07/07 02:22:27;;;;;;;15.60;5.53;;;14.40;72.30;;;;;;5038995;28;20017;-73
2021/07/07 02:24:53;;;;;;;10.63;5.03;;;14.40;72.70;;;;;;5034505;28;20527;-71
2021/07/07 02:27:18;;;;;;;13.35;5.35;;;14.40;73.20;;;;;;5036821;28;20029;-71
2021/07/07 02:29:44;;;;;;;14.27;6.00;;;14.40;73.20;;;;;;5039057;28;20370;-71
2021/07/07 02:32:10;;;;;;;14.65;5.75;;;14.40;73.20;;;;;;5038820;28;20023;-72
2021/07/07 02:34:36;;;;;;;18.02;5.68;;;14.40;72.90;;;;;;5033649;28;20037;-72
2021/07/07 02:37:02;;;;;;;12.90;5.25;;;14.40;72.70;;;;;;5034679;28;20068;-71
2021/07/07 02:39:28;;;;;;;11.98;5.30;;;14.40;72.30;;;;;;5038803;28;20469;-72
2021/07/07 02:41:54;;;;;;;12.60;5.68;;;14.30;72.30;;;;;;5038148;28;20047;-72
2021/07/07 02:44:19;;;;;;;16.25;5.68;;;14.30;72.20;;;;;;5039035;28;20028;-71
2021/07/07 02:46:45;;;;;;;15.80;6.30;;;14.30;72.10;;;;;;5038699;28;20038;-72
2021/07/07 02:49:11;;;;;;;16.55;6.03;;;14.40;71.60;;;;;;5033981;28;20041;-71
2021/07/07 02:51:37;;;;;;;14.65;6.65;;;14.30;72.20;;;;;;5037353;28;20484;-72
2021/07/07 02:54:03;;;;;;;14.90;6.07;;;14.30;72.90;;;;;;5038745;28;20025;-71
2021/07/07 02:56:28;;;;;;;10.15;4.97;;;14.30;71.60;;;;;;5037714;28;20013;-71
2021/07/07 02:58:54;;;;;;;14.38;5.38;;;14.30;71.30;;;;;;5038426;28;20025;-72
2021/07/07 03:01:21;;;;;;;12.80;5.20;;;14.30;70.50;;;;;;5033651;28;20075;-71
2021/07/07 03:03:47;;;;;;;13.75;5.90;;;14.30;70.80;;;;;;5031085;28;20464;-71
2021/07/07 03:06:13;;;;;;;12.50;5.45;;;14.30;71.00;;;;;;5038287;28;20045;-71
2021/07/07 03:08:43;;;;;;;13.90;5.82;;;14.30;70.20;;;;;;5038261;28;20027;-71
2021/07/07 03:11:09;;;;;;;13.30;5.32;;;14.30;70.10;;;;;;5023778;28;20030;-71
2021/07/07 03:13:36;;;;;;;11.18;5.20;;;14.20;69.60;;;;;;5038098;28;20549;-71
2021/07/07 03:16:05;;;;;;;8.70;4.57;;;14.20;69.10;;;;;;5038030;28;20025;-71
2021/07/07 03:18:31;;;;;;;8.77;4.47;;;14.20;68.90;;;;;;5028632;28;20056;-71
2021/07/07 03:20:57;;;;;;;8.55;4.60;;;14.20;68.50;;;;;;5037719;28;20500;-71
2021/07/07 03:23:24;;;;;;;11.85;4.80;;;14.20;68.30;;;;;;5038072;28;20017;-71
2021/07/07 03:25:52;;;;;;;8.05;5.35;;;14.20;68.10;;;;;;5037395;28;20021;-71
2021/07/07 03:28:23;;;;;;;13.00;4.88;;;14.20;68.00;;;;;;5037853;28;20077;-71
2021/07/07 03:30:49;;;;;;;8.07;4.65;;;14.20;68.00;;;;;;5025316;28;20021;-71
2021/07/07 03:33:15;;;;;;;9.45;4.45;;;14.20;67.70;;;;;;5032827;28;20053;-71
2021/07/07 03:35:41;;;;;;;8.55;4.40;;;14.20;67.70;;;;;;5037769;28;20033;-71
2021/07/07 03:38:07;;;;;;;7.97;4.45;;;14.10;67.40;;;;;;5034261;28;20388;-71
2021/07/07 03:40:35;;;;;;;10.93;4.97;;;14.10;67.40;;;;;;5037429;28;20025;-71
2021/07/07 03:43:02;;;;;;;10.98;4.80;;;14.10;67.40;;;;;;5037778;28;20125;-72
2021/07/07 03:45:28;;;;;;;9.15;5.25;;;14.10;67.60;;;;;;5037673;28;20052;-72
2021/07/07 03:47:54;;;;;;;12.40;4.95;;;14.10;67.70;;;;;;5037520;28;20029;-71
2021/07/07 03:50:20;;;;;;;11.00;5.60;;;14.10;68.10;;;;;;5037570;28;20021;-71
2021/07/07 03:52:47;;;;;;;12.48;5.10;;;14.10;68.00;;;;;;5037510;28;20472;-71
2021/07/07 03:55:16;;;;;;;11.98;5.57;;;14.00;67.60;;;;;;5037160;28;20030;-71
2021/07/07 03:57:42;;;;;;;11.80;4.80;;;14.00;68.10;;;;;;5037347;28;20022;-71
2021/07/07 04:00:11;;;;;;;12.45;6.00;;;14.00;68.20;;;;;;5037565;28;20021;-71
2021/07/07 04:02:37;;;;;;;14.05;5.43;;;13.90;68.50;;;;;;5037210;28;20030;-72
2021/07/07 04:05:05;;;;;;;11.00;4.93;;;13.90;69.00;;;;;;5037495;28;20021;-71
2021/07/07 04:07:31;;;;;;;13.52;4.68;;;13.90;67.90;;;;;;5037209;28;20026;-71
2021/07/07 04:09:57;;;;;;;9.68;4.97;;;13.90;67.80;;;;;;5037126;28;20372;-71
2021/07/07 04:12:22;;;;;;;9.02;4.88;;;13.90;67.60;;;;;;5036995;28;20021;-72
2021/07/07 04:14:48;;;;;;;9.70;4.72;;;13.90;67.50;;;;;;5032747;28;20022;-72
2021/07/07 04:17:14;;;;;;;12.18;5.55;;;13.80;67.30;;;;;;5032138;28;20041;-72
2021/07/07 04:19:40;;;;;;;11.55;4.50;;;13.80;67.20;;;;;;5030182;28;20045;-72
2021/07/07 04:22:06;;;;;;;10.65;4.20;;;13.80;67.10;;;;;;5037098;28;20021;-71
2021/07/07 04:24:32;;;;;;;9.15;4.93;;;13.80;67.20;;;;;;5037452;28;20028;-71
2021/07/07 04:26:57;;;;;;;8.43;4.55;;;13.80;67.10;;;;;;5036750;28;20481;-72
2021/07/07 04:29:23;;;;;;;11.38;5.20;;;13.70;67.10;;;;;;5037207;28;20028;-72
2021/07/07 04:31:49;;;;;;;9.88;4.45;;;13.70;67.20;;;;;;5040526;28;20070;-72
2021/07/07 04:34:15;;;;;;;10.73;4.93;;;13.70;67.00;;;;;;5036246;28;20559;-72
2021/07/07 04:36:41;;;;;;;9.75;4.53;;;13.70;66.90;;;;;;5037513;28;20030;-72
2021/07/07 04:39:08;;;;;;;9.77;4.93;;;13.70;66.90;;;;;;5041160;28;20384;-71
2021/07/07 04:41:34;;;;;;;7.60;4.50;;;13.70;66.90;;;;;;5040442;28;20109;-71
2021/07/07 04:44:00;;;;;;;9.45;4.30;;;13.70;66.80;;;;;;5041176;28;20097;-71
2021/07/07 04:46:26;;;;;;;7.82;4.30;;;13.70;66.80;;;;;;5040758;28;20152;-71
2021/07/07 04:48:52;;;;;;;10.95;4.53;;;13.70;66.80;;;;;;5041031;28;20033;-71
2021/07/07 04:51:18;;;;;;;8.48;4.53;;;13.60;66.70;;;;;;5056073;28;20040;-71
2021/07/07 04:53:44;;;;;;;9.18;4.40;;;13.60;66.80;;;;;;5040706;28;20088;-71
2021/07/07 04:56:10;;;;;;;7.63;4.38;;;13.60;67.50;;;;;;5040222;28;20465;-71
2021/07/07 04:58:41;;;;;;;10.43;5.25;;;13.60;67.20;;;;;;5040940;28;20017;-72
2021/07/07 05:01:07;;;;;;;11.80;4.60;;;13.60;67.30;;;;;;5040443;28;20056;-71
2021/07/07 05:03:33;;;;;;;9.20;5.40;;;13.60;67.40;;;;;;5040823;28;20022;-71
2021/07/07 05:05:59;;;;;;;12.15;6.15;;;13.60;67.90;;;;;;5040419;28;20105;-71
2021/07/07 05:08:25;;;;;;;7.35;4.50;;;13.60;67.80;;;;;;5040477;28;20057;-71
2021/07/07 05:10:51;;;;;;;12.05;5.50;;;13.70;68.00;;;;;;5039897;28;20030;-73
2021/07/07 05:13:18;;;;;;;10.52;5.28;;;13.70;68.20;;;;;;5044089;28;20603;-70
2021/07/07 05:15:47;;;;;;;12.00;6.10;;;13.70;68.30;;;;;;5038818;28;20022;-71
2021/07/07 05:18:13;;;;;;;14.35;5.75;;;13.70;68.60;;;;;;5031510;28;20018;-71
2021/07/07 05:20:39;;;;;;;13.65;5.68;;;13.70;69.10;;;;;;5040100;28;20476;-71
2021/07/07 05:23:07;;;;;;;13.13;6.00;;;13.80;69.60;;;;;;5040247;28;20018;-74
2021/07/07 05:25:39;;;;;;;12.35;5.40;;;13.80;69.70;;;;;;5038453;28;20026;-74
2021/07/07 05:28:06;;;;;;;12.43;5.18;;;13.80;69.40;;;;;;5040225;28;20018;-73
2021/07/07 05:30:32;;;;;;;10.70;5.20;;;13.80;69.20;;;;;;5039997;28;20029;-75
2021/07/07 05:33:00;;;;;;;10.48;5.25;;;13.80;69.00;;;;;;5044807;28;20378;-72
2021/07/07 05:35:26;;;;;;;11.15;5.50;;;13.90;69.10;;;;;;5038272;28;20030;-73
2021/07/07 05:37:52;;;;;;;11.38;5.20;;;13.90;69.50;;;;;;5035917;28;20503;-74
2021/07/07 05:40:20;;;;;;;10.45;6.20;;;13.90;69.60;;;;;;5039448;28;20045;-76
2021/07/07 05:42:50;;;;;;;12.68;5.57;;;13.90;70.30;;;;;;5039389;28;20021;-74
2021/07/07 05:45:17;;;;;;;14.02;6.57;;;14.00;70.50;;;;;;5039602;28;20096;-75
2021/07/07 05:47:47;;;;;;;13.48;5.85;;;14.00;70.80;;;;;;5039427;28;20025;-73
2021/07/07 05:50:13;;;;;;;12.38;5.78;;;14.00;70.60;;;;;;5026402;28;20033;-72
2021/07/07 05:52:39;;;;;;;10.30;5.60;;;14.10;71.00;;;;;;5039530;28;20097;-73
2021/07/07 05:55:06;;;;;;;13.57;5.32;;;14.10;71.40;;;;;;5037778;28;20057;-75
2021/07/07 05:57:37;;;;;;;14.07;5.85;;;14.20;71.70;;;;;;5038372;28;20025;-74
2021/07/07 06:00:15;;;;;;;11.80;5.50;;;14.20;72.10;;;;;;5037307;28;20040;-74
2021/07/07 06:02:43;;;;;;;18.13;5.82;;;14.30;72.20;;;;;;5036800;28;20018;-75
2021/07/07 06:05:10;;;;;;;12.30;5.55;;;14.30;72.50;;;;;;5038863;28;20017;-76
2021/07/07 06:07:39;;;;;;;15.93;6.43;;;14.40;72.50;;;;;;5038153;28;20148;-73
2021/07/07 06:10:09;;;;;;;16.38;6.10;;;14.40;72.60;;;;;;5038476;28;20049;-74
2021/07/07 06:12:35;;;;;;;14.50;6.22;;;14.40;72.50;;;;;;5038478;28;20018;-75
2021/07/07 06:15:02;;;;;;;9.75;5.78;;;14.50;72.70;;;;;;5039438;28;22335;-75
2021/07/07 06:17:28;;;;;;;13.05;5.75;;;14.50;73.00;;;;;;5035421;28;20062;-74
2021/07/07 06:19:54;;;;;;;11.00;5.63;;;14.50;72.90;;;;;;5033943;28;20052;-74
2021/07/07 06:22:19;;;;;;;14.13;6.00;;;14.60;73.10;;;;;;5038971;28;20022;-75
2021/07/07 06:24:45;;;;;;;16.98;6.20;;;14.60;73.30;;;;;;5039169;28;20052;-75
2021/07/07 06:27:11;;;;;;;13.18;5.88;;;14.70;73.70;;;;;;5038595;28;20839;-75
2021/07/07 06:29:37;;;;;;;11.27;4.90;;;14.80;73.80;;;;;;5043869;28;20552;-75
2021/07/07 06:32:03;;;;;;;15.52;6.88;;;14.90;74.10;;;;;;5035943;28;20021;-75
2021/07/07 06:34:29;;;;;;;13.52;6.50;;;14.90;74.90;;;;;;5033670;28;20071;-76
2021/07/07 06:36:55;;;;;;;12.63;6.03;;;15.10;74.60;;;;;;5034626;28;20085;-75
2021/07/07 06:39:20;;;;;;;11.38;5.50;;;15.20;74.80;;;;;;5034208;28;20072;-76
2021/07/07 06:41:46;;;;;;;12.55;4.88;;;15.30;75.20;;;;;;5035517;28;20459;-75
2021/07/07 06:44:12;;;;;;;11.15;4.90;;;15.40;75.20;;;;;;5037861;28;20064;-75
2021/07/07 06:46:38;;;;;;;30.25;16.73;;;15.60;75.60;;;;;;5037086;28;20025;-75
2021/07/07 06:49:04;;;;;;;24.67;14.88;;;15.70;75.50;;;;;;5038164;28;20049;-74
2021/07/07 06:51:30;;;;;;;10.93;5.93;;;15.80;75.20;;;;;;5038422;28;20025;-73
2021/07/07 06:53:56;;;;;;;12.20;5.18;;;15.90;74.90;;;;;;5037716;28;20388;-74
2021/07/07 06:56:22;;;;;;;10.75;4.55;;;16.00;74.50;;;;;;5035370;28;20064;-75
2021/07/07 06:58:47;;;;;;;9.75;4.15;;;16.10;74.50;;;;;;5029888;28;20017;-74
2021/07/07 07:01:13;;;;;;;8.55;4.53;;;16.20;74.30;;;;;;5036919;28;20045;-77
2021/07/07 07:03:39;;;;;;;9.65;5.72;;;16.20;74.30;;;;;;5038391;28;20358;-74
2021/07/07 07:06:05;;;;;;;9.25;4.13;;;16.30;74.50;;;;;;5037708;28;20036;-75
2021/07/07 07:08:32;;;;;;;9.07;4.28;;;16.50;74.20;;;;;;5037571;28;20049;-78
2021/07/07 07:10:58;;;;;;;10.43;4.63;;;16.60;74.20;;;;;;5036320;28;20036;-72
2021/07/07 07:13:24;;;;;;;13.25;4.80;;;16.70;74.80;;;;;;5038109;28;20476;-72
2021/07/07 07:15:50;;;;;;;11.30;5.32;;;16.90;75.10;;;;;;5037393;28;20029;-73
2021/07/07 07:18:15;;;;;;;12.75;4.65;;;17.10;74.90;;;;;;5027245;28;20022;-72
2021/07/07 07:20:42;;;;;;;10.30;3.85;;;17.30;74.60;;;;;;5035963;28;20467;-72
2021/07/07 07:23:09;;;;;;;11.70;4.40;;;17.40;73.40;;;;;;5028667;28;20057;-72
2021/07/07 07:25:35;;;;;;;11.40;4.68;;;17.60;74.00;;;;;;5036513;28;20504;-73
2021/07/07 07:28:01;;;;;;;9.82;4.00;;;17.80;74.50;;;;;;5037730;28;20059;-73
2021/07/07 07:30:29;;;;;;;9.55;3.75;;;18.20;73.80;;;;;;5037469;28;20511;-73
2021/07/07 07:32:55;;;;;;;7.40;3.60;;;18.40;71.50;;;;;;5035892;28;20037;-73
2021/07/07 07:35:22;;;;;;;9.93;3.70;;;18.60;70.70;;;;;;5031656;28;20049;-73
2021/07/07 07:37:51;;;;;;;13.35;3.88;;;18.60;70.20;;;;;;5037447;28;20022;-73
2021/07/07 07:40:31;;;;;;;10.82;3.95;;;18.60;69.30;;;;;;5037068;28;20465;-73
2021/07/07 07:42:57;;;;;;;9.45;4.32;;;18.50;69.10;;;;;;5037352;28;20048;-74
2021/07/07 07:45:23;;;;;;;8.82;4.10;;;18.40;69.80;;;;;;5037501;28;20427;-73
2021/07/07 07:47:49;;;;;;;11.13;4.13;;;18.30;70.10;;;;;;5037261;28;20530;-74
2021/07/07 07:50:17;;;;;;;12.40;4.28;;;18.20;70.30;;;;;;5037401;28;20053;-73
2021/07/07 07:52:44;;;;;;;9.98;4.03;;;18.00;70.00;;;;;;5035983;28;20014;-73
2021/07/07 07:55:11;;;;;;;11.00;4.03;;;17.90;70.10;;;;;;5037006;28;20025;-73
2021/07/07 07:57:38;;;;;;;8.48;4.78;;;17.80;70.30;;;;;;5037368;28;20105;-73
2021/07/07 08:00:07;;;;;;;11.73;4.45;;;17.80;70.60;;;;;;5037322;28;20032;-73
2021/07/07 08:02:33;;;;;;;11.23;4.60;;;17.70;70.80;;;;;;5037041;28;20384;-73
2021/07/07 08:04:59;;;;;;;10.63;5.28;;;17.70;70.80;;;;;;5037027;28;20076;-73
2021/07/07 08:07:28;;;;;;;11.95;4.70;;;17.70;70.90;;;;;;5037242;28;20032;-73
2021/07/07 08:09:56;;;;;;;7.38;3.97;;;17.80;71.40;;;;;;5037094;28;20179;-73
2021/07/07 08:12:23;;;;;;;11.02;4.90;;;17.90;71.20;;;;;;5036869;28;20480;-73
2021/07/07 08:14:51;;;;;;;9.63;4.43;;;18.10;72.50;;;;;;5037335;28;20121;-73
2021/07/07 08:17:20;;;;;;;13.00;4.38;;;18.40;73.30;;;;;;5034680;28;20036;-74
2021/07/07 08:19:50;;;;;;;9.98;4.25;;;18.60;72.40;;;;;;5031857;28;20052;-73
2021/07/07 08:22:17;;;;;;;9.50;4.10;;;18.70;72.20;;;;;;5037025;28;20037;-73
2021/07/07 08:24:44;;;;;;;10.07;3.67;;;18.70;71.20;;;;;;5052464;28;20168;-73
2021/07/07 08:27:10;;;;;;;10.82;4.07;;;18.70;69.10;;;;;;5035050;28;20033;-72
2021/07/07 08:29:36;;;;;;;11.25;4.43;;;18.70;70.00;;;;;;5037016;28;20052;-73
2021/07/07 08:32:04;;;;;;;8.40;4.13;;;18.70;70.00;;;;;;5036931;28;20037;-73
2021/07/07 08:34:30;;;;;;;10.13;5.18;;;18.80;71.30;;;;;;5032246;28;20021;-72
2021/07/07 08:36:56;;;;;;;9.63;3.78;;;19.00;71.60;;;;;;5036703;28;20025;-73
2021/07/07 08:39:23;;;;;;;7.30;3.50;;;19.10;69.70;;;;;;5036881;28;20106;-73
2021/07/07 08:41:49;;;;;;;10.48;4.03;;;19.10;68.20;;;;;;5036528;28;20036;-75
2021/07/07 08:44:16;;;;;;;8.80;3.92;;;19.00;67.90;;;;;;5034262;28;20552;-74
2021/07/07 08:46:42;;;;;;;7.30;3.90;;;19.00;68.20;;;;;;5035802;28;20048;-74
2021/07/07 08:49:08;;;;;;;13.30;4.43;;;18.90;68.10;;;;;;5037167;28;20029;-74
2021/07/07 08:51:40;;;;;;;7.85;3.55;;;18.80;68.10;;;;;;5036827;28;20030;-74
2021/07/07 08:54:06;;;;;;;12.77;4.43;;;18.80;68.60;;;;;;5036845;28;20491;-74
2021/07/07 08:56:32;;;;;;;9.38;4.18;;;18.80;68.60;;;;;;5036721;28;20041;-74
2021/07/07 08:58:58;;;;;;;9.43;4.05;;;18.80;69.10;;;;;;5036722;28;20021;-75
2021/07/07 09:01:24;;;;;;;9.85;4.10;;;18.80;69.20;;;;;;5037048;28;20021;-73
2021/07/07 09:03:50;;;;;;;8.57;4.30;;;18.90;69.10;;;;;;5036763;28;20017;-75
2021/07/07 09:06:19;;;;;;;10.75;3.58;;;18.80;69.30;;;;;;5035565;28;20542;-75
2021/07/07 09:08:47;;;;;;;6.65;3.50;;;18.80;68.70;;;;;;5032152;28;20105;-75
2021/07/07 09:11:27;;;;;;;8.82;4.15;;;18.70;68.60;;;;;;5036182;28;20496;-74
2021/07/07 09:14:13;;;;;;;8.77;4.00;;;18.70;69.10;;;;;;5036515;28;20022;-74
2021/07/07 09:17:07;;;;;;;10.30;3.78;;;18.80;69.70;;;;;;5035795;28;20036;-74
2021/07/07 09:19:36;;;;;;;9.48;4.00;;;19.10;70.70;;;;;;5032283;28;20080;-74
2021/07/07 09:22:06;;;;;;;10.27;4.32;;;19.40;69.60;;;;;;5039704;28;20116;-75
2021/07/07 09:24:34;;;;;;;6.25;3.72;;;19.50;68.70;;;;;;5040209;28;20028;-75
2021/07/07 09:27:05;;;;;;;8.88;3.55;;;19.50;67.80;;;;;;5039480;28;20030;-75
2021/07/07 09:29:49;;;;;;;7.32;3.80;;;19.50;68.50;;;;;;5040139;28;20379;-74
2021/07/07 09:32:31;;;;;;;8.77;3.42;;;19.50;68.80;;;;;;5038582;28;20029;-74
2021/07/07 09:34:59;;;;;;;7.95;3.08;;;19.50;68.40;;;;;;5049923;28;20030;-74
2021/07/07 09:37:36;;;;;;;7.28;3.42;;;19.60;68.10;;;;;;5039750;28;20065;-74
2021/07/07 09:40:04;;;;;;;7.63;3.50;;;19.70;67.50;;;;;;5039397;28;20025;-74
2021/07/07 09:42:35;;;;;;;8.40;3.28;;;19.70;67.60;;;;;;5039751;28;20014;-75
2021/07/07 09:45:04;;;;;;;7.03;3.30;;;19.70;67.20;;;;;;5039707;28;20056;-75
2021/07/07 09:47:30;;;;;;;8.45;3.65;;;19.70;66.70;;;;;;5039793;28;20029;-74
2021/07/07 09:49:58;;;;;;;7.65;3.35;;;19.60;67.10;;;;;;5036781;28;20053;-74
2021/07/07 09:52:26;;;;;;;7.60;3.80;;;19.60;67.40;;;;;;5039582;28;20404;-74
2021/07/07 09:54:53;;;;;;;7.88;3.33;;;19.60;68.00;;;;;;5038898;28;20021;-74
2021/07/07 09:57:20;;;;;;;7.35;3.92;;;19.60;67.30;;;;;;5039584;28;20126;-74
2021/07/07 09:59:46;;;;;;;8.63;3.97;;;19.60;67.50;;;;;;5039287;28;20028;-74
2021/07/07 10:02:12;;;;;;;8.57;3.50;;;19.60;67.10;;;;;;5039483;28;20037;-74
2021/07/07 10:04:42;;;;;;;9.20;3.63;;;19.60;67.10;;;;;;5039153;28;20024;-74
2021/07/07 10:07:09;;;;;;;9.15;3.47;;;19.60;67.00;;;;;;5039464;28;20036;-74
2021/07/07 10:09:38;;;;;;;8.50;3.67;;;19.60;67.20;;;;;;5026103;28;20025;-74
2021/07/07 10:12:04;;;;;;;6.90;3.55;;;19.60;67.30;;;;;;5038931;28;20029;-74
2021/07/07 10:14:30;;;;;;;10.30;3.88;;;19.60;67.60;;;;;;5034707;28;20057;-74
2021/07/07 10:16:57;;;;;;;7.93;3.90;;;19.70;67.70;;;;;;5033266;28;20485;-73
2021/07/07 10:19:23;;;;;;;7.10;3.72;;;19.70;68.00;;;;;;5029967;28;20056;-73
2021/07/07 10:21:50;;;;;;;8.60;4.13;;;19.70;67.20;;;;;;5039041;28;20041;-73
2021/07/07 10:24:29;;;;;;;9.73;3.40;;;19.80;67.00;;;;;;5037826;28;20060;-73
2021/07/07 10:27:05;;;;;;;13.40;3.50;;;19.80;67.20;;;;;;5038465;28;20441;-73
2021/07/07 10:29:31;;;;;;;7.63;3.47;;;19.70;67.30;;;;;;5036460;28;20392;-74
2021/07/07 10:32:02;;;;;;;7.43;3.30;;;19.80;67.00;;;;;;5038852;28;20082;-73
2021/07/07 10:34:29;;;;;;;5.55;3.40;;;19.90;67.70;;;;;;5036771;28;20032;-73
2021/07/07 10:36:57;;;;;;;6.38;2.95;;;20.10;66.50;;;;;;5038107;28;20029;-73
2021/07/07 10:39:23;;;;;;;8.25;3.42;;;20.30;67.10;;;;;;5042993;28;20030;-73
2021/07/07 10:42:02;;;;;;;8.13;3.50;;;20.40;66.90;;;;;;5036192;28;20018;-74
2021/07/07 10:44:28;;;;;;;12.07;4.53;;;20.40;67.40;;;;;;5038761;28;20022;-74
2021/07/07 10:46:59;;;;;;;6.75;3.85;;;20.30;66.00;;;;;;5037095;28;20028;-73
2021/07/07 10:49:27;;;;;;;8.57;3.90;;;20.30;66.30;;;;;;5035003;28;20021;-74
2021/07/07 10:51:56;;;;;;;8.25;3.53;;;20.40;66.50;;;;;;5038549;28;20107;-73
2021/07/07 10:54:24;;;;;;;6.57;3.53;;;20.50;66.50;;;;;;5037840;28;20079;-73
2021/07/07 10:56:52;;;;;;;7.75;3.50;;;20.60;66.00;;;;;;5038057;28;20064;-73
2021/07/07 10:59:41;;;;;;;9.68;3.70;;;20.60;66.30;;;;;;5038296;28;20010;-73
2021/07/07 11:02:07;;;;;;;6.55;3.03;;;20.50;65.50;;;;;;5038006;28;20484;-73
2021/07/07 11:04:34;;;;;;;6.40;3.60;;;20.40;65.60;;;;;;5038134;28;20047;-73
2021/07/07 11:07:25;;;;;;;7.47;4.15;;;20.30;65.10;;;;;;5038205;28;20463;-73
2021/07/07 11:09:53;;;;;;;9.38;3.80;;;20.20;65.60;;;;;;5026586;28;20451;-73
2021/07/07 11:12:24;;;;;;;7.57;3.63;;;20.10;65.70;;;;;;5038030;28;20026;-73
2021/07/07 11:15:16;;;;;;;10.15;3.78;;;20.00;65.70;;;;;;5038109;28;20504;-73
2021/07/07 11:17:47;;;;;;;7.93;3.63;;;19.90;65.80;;;;;;5024020;28;20376;-73
2021/07/07 11:20:24;;;;;;;6.85;3.70;;;19.80;65.80;;;;;;5035019;28;20045;-73
2021/07/07 11:22:59;;;;;;;7.70;3.65;;;19.80;65.90;;;;;;5026038;28;20029;-73
2021/07/07 11:25:26;;;;;;;5.95;3.58;;;19.80;66.60;;;;;;5037364;28;20385;-73
2021/07/07 11:27:52;;;;;;;7.95;3.47;;;19.80;67.10;;;;;;5038034;28;20040;-74
2021/07/07 11:30:19;;;;;;;8.30;3.25;;;19.80;66.80;;;;;;5035051;28;20059;-74
2021/07/07 11:32:47;;;;;;;7.97;3.83;;;19.90;66.80;;;;;;5035104;28;20033;-71
2021/07/07 11:35:32;;;;;;;7.50;3.30;;;19.90;67.10;;;;;;5033587;28;20033;-72
2021/07/07 11:38:11;;;;;;;8.77;4.35;;;20.00;66.10;;;;;;5024525;28;20037;-73
2021/07/07 11:40:42;;;;;;;8.48;3.67;;;20.00;66.40;;;;;;5043492;28;20018;-74
2021/07/07 11:43:13;;;;;;;7.50;2.65;;;20.20;66.80;;;;;;5032735;28;20778;-75
2021/07/07 11:45:43;;;;;;;10.68;3.00;;;20.40;66.00;;;;;;5031956;28;20022;-74
2021/07/07 11:48:16;;;;;;;7.70;3.10;;;20.50;65.70;;;;;;5034187;28;20118;-74
2021/07/07 11:50:46;;;;;;;9.30;3.08;;;20.70;66.30;;;;;;5034222;28;20029;-74
2021/07/07 11:53:13;;;;;;;10.52;3.67;;;20.90;65.90;;;;;;5033443;28;20034;-74
2021/07/07 11:56:00;;;;;;;8.23;3.35;;;21.00;65.40;;;;;;5030688;28;20103;-75
2021/07/07 11:58:38;;;;;;;7.25;3.22;;;21.20;66.00;;;;;;5034648;28;20021;-75
2021/07/07 12:01:27;;;;;;;7.20;2.88;;;21.40;65.80;;;;;;5036780;28;20018;-74
2021/07/07 12:03:56;;;;;;;8.10;3.20;;;21.50;66.30;;;;;;5037427;28;20025;-74
2021/07/07 12:06:36;;;;;;;5.97;2.92;;;21.60;64.90;;;;;;5033724;28;20025;-74
2021/07/07 12:09:05;;;;;;;5.68;2.85;;;21.60;64.30;;;;;;5034473;28;20029;-74
2021/07/07 12:11:31;;;;;;;6.63;2.88;;;21.60;64.00;;;;;;5034547;28;20056;-74
2021/07/07 12:13:57;;;;;;;7.88;3.08;;;21.50;64.00;;;;;;5051983;28;20037;-74
2021/07/07 12:16:30;;;;;;;4.88;3.25;;;21.40;63.80;;;;;;5037276;28;20026;-74
2021/07/07 12:18:59;;;;;;;9.93;3.83;;;21.30;64.60;;;;;;5034603;28;20060;-74
2021/07/07 12:21:24;;;;;;;6.10;2.97;;;21.30;64.50;;;;;;5036777;28;20388;-73
2021/07/07 12:23:55;;;;;;;9.57;2.92;;;21.20;64.30;;;;;;5036956;28;20100;-73
2021/07/07 12:26:22;;;;;;;6.55;3.28;;;21.30;63.80;;;;;;5036665;28;20408;-74
2021/07/07 12:28:48;;;;;;;7.60;3.60;;;21.20;63.70;;;;;;5035955;28;20060;-73
2021/07/07 12:31:17;;;;;;;9.43;3.45;;;21.20;64.00;;;;;;5035380;28;20028;-73
2021/07/07 12:33:44;;;;;;;7.18;3.55;;;21.10;63.70;;;;;;5031534;28;20109;-74
2021/07/07 12:36:14;;;;;;;7.32;3.60;;;21.10;63.60;;;;;;5036636;28;20429;-73
2021/07/07 12:38:44;;;;;;;7.72;3.40;;;21.10;64.20;;;;;;5036166;28;20083;-73
2021/07/07 12:41:10;;;;;;;8.38;3.35;;;21.10;64.30;;;;;;5036355;28;20029;-74
2021/07/07 12:43:55;;;;;;;6.75;3.17;;;21.10;64.70;;;;;;5036976;28;20028;-75